createdAt,value
2018-12-31T00:01:05.310Z,8.70
2018-12-31T00:02:15.422Z,8.70
2018-12-31T00:03:20.680Z,8.70
2018-12-31T00:04:25.964Z,8.70
2018-12-31T00:05:31.247Z,8.70
2018-12-31T00:06:36.536Z,8.70
2018-12-31T00:07:41.819Z,8.70
2018-12-31T00:08:47.123Z,8.70
2018-12-31T00:09:52.382Z,8.70
2018-12-31T00:10:57.573Z,8.70
2018-12-31T00:12:02.803Z,8.70
2018-12-31T00:13:08.102Z,8.70
2018-12-31T00:14:13.375Z,8.70
2018-12-31T00:15:18.670Z,8.80
2018-12-31T00:16:23.985Z,8.70
2018-12-31T00:17:29.145Z,8.70
2018-12-31T00:18:34.390Z,8.70
2018-12-31T00:19:39.618Z,8.70
2018-12-31T00:20:44.827Z,8.80
2018-12-31T00:21:50.044Z,8.80
2018-12-31T00:22:55.344Z,8.80
2018-12-31T00:24:00.712Z,8.80
2018-12-31T00:25:06.048Z,8.80
2018-12-31T00:26:11.296Z,8.70
2018-12-31T00:27:16.514Z,8.70
2018-12-31T00:28:21.831Z,8.70
2018-12-31T00:29:27.145Z,8.80
2018-12-31T00:30:32.368Z,8.80
2018-12-31T00:31:37.619Z,8.70
2018-12-31T00:32:42.887Z,8.70
2018-12-31T00:33:48.132Z,8.70
2018-12-31T00:34:53.539Z,8.80
2018-12-31T00:35:58.724Z,8.80
2018-12-31T00:37:04.047Z,8.70
2018-12-31T00:38:09.297Z,8.80
2018-12-31T00:39:14.514Z,8.70
2018-12-31T00:40:19.861Z,8.80
2018-12-31T00:41:25.134Z,8.80
2018-12-31T00:42:30.272Z,8.80
2018-12-31T00:43:35.487Z,8.80
2018-12-31T00:44:40.759Z,8.80
2018-12-31T00:45:46.063Z,8.80
2018-12-31T00:46:51.235Z,8.80
2018-12-31T00:47:56.460Z,8.80
2018-12-31T00:49:01.758Z,8.80
2018-12-31T00:50:07.881Z,8.80
2018-12-31T00:51:13.160Z,8.80
2018-12-31T00:52:18.337Z,8.80
2018-12-31T00:53:23.622Z,8.80
2018-12-31T00:54:28.786Z,8.80
2018-12-31T00:55:34.968Z,8.80
2018-12-31T00:56:40.259Z,8.80
2018-12-31T00:57:45.574Z,8.90
2018-12-31T00:58:50.913Z,8.80
2018-12-31T00:59:56.123Z,8.80
2018-12-31T01:01:01.380Z,8.80
2018-12-31T01:02:06.682Z,8.80
2018-12-31T01:03:11.868Z,8.80
2018-12-31T01:04:17.142Z,8.80
2018-12-31T01:05:22.406Z,8.80
2018-12-31T01:06:27.651Z,8.80
2018-12-31T01:07:32.949Z,8.80
2018-12-31T01:08:38.172Z,8.80
2018-12-31T01:09:43.446Z,8.80
2018-12-31T01:10:48.751Z,8.80
2018-12-31T01:11:53.927Z,8.80
2018-12-31T01:12:59.215Z,8.80
2018-12-31T01:14:05.342Z,8.80
2018-12-31T01:15:10.496Z,8.80
2018-12-31T01:16:15.763Z,8.80
2018-12-31T01:17:21.052Z,8.80
2018-12-31T01:18:26.437Z,8.80
2018-12-31T01:19:31.685Z,8.80
2018-12-31T01:20:36.955Z,8.90
2018-12-31T01:21:42.142Z,8.80
2018-12-31T01:22:47.418Z,8.80
2018-12-31T01:23:52.678Z,8.80
2018-12-31T01:24:57.940Z,8.90
2018-12-31T01:26:03.274Z,8.80
2018-12-31T01:27:08.458Z,8.80
2018-12-31T01:28:13.761Z,8.80
2018-12-31T01:29:18.967Z,8.90
2018-12-31T01:30:24.278Z,8.80
2018-12-31T01:31:29.549Z,8.80
2018-12-31T01:32:34.828Z,8.90
2018-12-31T01:33:40.076Z,8.90
2018-12-31T01:34:45.239Z,8.90
2018-12-31T01:35:50.503Z,8.90
2018-12-31T01:36:55.804Z,8.90
2018-12-31T01:38:01.074Z,8.90
2018-12-31T01:39:07.205Z,8.90
2018-12-31T01:40:12.395Z,8.90
2018-12-31T01:41:17.644Z,8.90
2018-12-31T01:42:22.911Z,8.90
2018-12-31T01:43:28.175Z,8.90
2018-12-31T01:44:33.436Z,8.90
2018-12-31T01:45:38.587Z,8.90
2018-12-31T01:46:43.771Z,8.90
2018-12-31T01:47:49.028Z,8.90
2018-12-31T01:48:54.280Z,8.90
2018-12-31T01:49:59.459Z,9.00
2018-12-31T01:51:11.343Z,8.90
2018-12-31T01:52:11.674Z,9.00
2018-12-31T01:53:16.918Z,9.00
2018-12-31T01:54:22.170Z,9.00
2018-12-31T01:55:27.496Z,9.00
2018-12-31T01:56:32.678Z,9.00
2018-12-31T01:57:38.043Z,9.00
2018-12-31T01:58:43.292Z,9.00
2018-12-31T01:59:48.491Z,9.00
2018-12-31T02:00:53.768Z,9.00
2018-12-31T02:01:59.027Z,9.00
2018-12-31T02:03:04.309Z,9.00
2018-12-31T02:04:09.596Z,9.00
2018-12-31T02:05:14.819Z,9.10
2018-12-31T02:06:20.082Z,9.00
2018-12-31T02:07:25.275Z,9.10
2018-12-31T02:08:30.612Z,9.10
2018-12-31T02:09:36.358Z,9.10
2018-12-31T02:10:41.706Z,9.00
2018-12-31T02:11:46.959Z,9.00
2018-12-31T02:12:52.244Z,9.10
2018-12-31T02:13:57.553Z,9.10
2018-12-31T02:15:02.855Z,9.10
2018-12-31T02:16:08.273Z,9.10
2018-12-31T02:17:13.539Z,9.10
2018-12-31T02:18:18.722Z,9.10
2018-12-31T02:19:24.004Z,9.10
2018-12-31T02:20:29.412Z,9.10
2018-12-31T02:21:34.693Z,9.10
2018-12-31T02:22:39.943Z,9.10
2018-12-31T02:23:45.183Z,9.10
2018-12-31T02:24:50.485Z,9.10
2018-12-31T02:25:55.756Z,9.10
2018-12-31T02:27:01.009Z,9.10
2018-12-31T02:28:06.308Z,9.10
2018-12-31T02:29:11.504Z,9.10
2018-12-31T02:30:16.966Z,9.00
2018-12-31T02:31:22.202Z,9.00
2018-12-31T02:32:27.407Z,9.00
2018-12-31T02:33:32.623Z,9.00
2018-12-31T02:34:37.990Z,9.00
2018-12-31T02:35:43.295Z,9.00
2018-12-31T02:36:48.582Z,9.00
2018-12-31T02:37:53.843Z,9.00
2018-12-31T02:38:59.133Z,9.00
2018-12-31T02:40:04.466Z,9.00
2018-12-31T02:41:09.805Z,9.00
2018-12-31T02:42:14.869Z,9.00
2018-12-31T02:43:20.045Z,9.00
2018-12-31T02:44:26.225Z,9.00
2018-12-31T02:45:31.570Z,9.00
2018-12-31T02:46:36.863Z,9.00
2018-12-31T02:47:42.045Z,9.00
2018-12-31T02:48:47.272Z,9.00
2018-12-31T02:49:52.524Z,9.00
2018-12-31T02:50:57.864Z,9.00
2018-12-31T02:52:03.067Z,9.00
2018-12-31T02:53:08.387Z,9.00
2018-12-31T02:54:13.584Z,9.00
2018-12-31T02:55:18.915Z,9.00
2018-12-31T02:56:24.116Z,9.00
2018-12-31T02:57:29.581Z,9.00
2018-12-31T02:58:34.792Z,9.00
2018-12-31T02:59:40.085Z,9.00
2018-12-31T03:00:45.372Z,9.00
2018-12-31T03:01:50.653Z,9.00
2018-12-31T03:02:55.888Z,9.00
2018-12-31T03:04:01.110Z,9.10
2018-12-31T03:05:07.510Z,9.10
2018-12-31T03:06:12.803Z,9.10
2018-12-31T03:07:18.025Z,9.10
2018-12-31T03:08:23.194Z,9.10
2018-12-31T03:09:29.395Z,9.10
2018-12-31T03:10:34.696Z,9.10
2018-12-31T03:11:39.964Z,9.10
2018-12-31T03:12:45.219Z,9.10
2018-12-31T03:13:50.614Z,9.10
2018-12-31T03:14:55.860Z,9.00
2018-12-31T03:16:01.165Z,9.10
2018-12-31T03:17:06.418Z,9.10
2018-12-31T03:18:11.814Z,9.10
2018-12-31T03:19:17.081Z,9.10
2018-12-31T03:20:22.415Z,9.10
2018-12-31T03:21:27.707Z,9.10
2018-12-31T03:22:33.027Z,9.10
2018-12-31T03:23:38.285Z,9.10
2018-12-31T03:24:43.566Z,9.10
2018-12-31T03:25:48.926Z,9.10
2018-12-31T03:26:54.099Z,9.10
2018-12-31T03:27:59.290Z,9.10
2018-12-31T03:29:04.533Z,9.10
2018-12-31T03:30:09.816Z,9.10
2018-12-31T03:31:15.056Z,9.10
2018-12-31T03:32:20.351Z,9.20
2018-12-31T03:33:25.605Z,9.20
2018-12-31T03:34:30.911Z,9.20
2018-12-31T03:35:36.273Z,9.10
2018-12-31T03:36:41.553Z,9.20
2018-12-31T03:37:46.801Z,9.20
2018-12-31T03:38:52.007Z,9.20
2018-12-31T03:39:57.292Z,9.20
2018-12-31T03:41:02.908Z,9.20
2018-12-31T03:42:08.192Z,9.20
2018-12-31T03:43:13.506Z,9.20
2018-12-31T03:44:19.792Z,9.20
2018-12-31T03:45:25.020Z,9.30
2018-12-31T03:46:30.352Z,9.30
2018-12-31T03:47:35.664Z,9.30
2018-12-31T03:48:40.988Z,9.30
2018-12-31T03:49:46.151Z,9.30
2018-12-31T03:50:51.499Z,9.30
2018-12-31T03:51:56.652Z,9.30
2018-12-31T03:53:01.948Z,9.30
2018-12-31T03:54:07.303Z,9.30
2018-12-31T03:55:12.600Z,9.30
2018-12-31T03:56:17.914Z,9.30
2018-12-31T03:57:23.113Z,9.30
2018-12-31T03:58:28.289Z,9.30
2018-12-31T03:59:33.596Z,9.30
2018-12-31T04:00:38.954Z,9.30
2018-12-31T04:01:44.136Z,9.30
2018-12-31T04:02:49.390Z,9.30
2018-12-31T04:03:54.491Z,9.30
2018-12-31T04:04:59.827Z,9.30
2018-12-31T04:06:05.001Z,9.30
2018-12-31T04:07:10.288Z,9.30
2018-12-31T04:08:15.562Z,9.40
2018-12-31T04:09:20.836Z,9.40
2018-12-31T04:10:26.220Z,9.40
2018-12-31T04:11:31.487Z,9.40
2018-12-31T04:12:36.846Z,9.40
2018-12-31T04:13:42.192Z,9.40
2018-12-31T04:14:47.464Z,9.40
2018-12-31T04:15:52.734Z,9.40
2018-12-31T04:16:58.036Z,9.40
2018-12-31T04:18:03.403Z,9.40
2018-12-31T04:19:08.715Z,9.40
2018-12-31T04:20:13.930Z,9.40
2018-12-31T04:21:19.182Z,9.40
2018-12-31T04:22:24.440Z,9.40
2018-12-31T04:23:29.786Z,9.30
2018-12-31T04:24:35.307Z,9.40
2018-12-31T04:25:40.661Z,9.40
2018-12-31T04:26:45.817Z,9.40
2018-12-31T04:27:51.129Z,9.40
2018-12-31T04:28:56.424Z,9.40
2018-12-31T04:30:01.715Z,9.40
2018-12-31T04:31:07.113Z,9.40
2018-12-31T04:32:12.412Z,9.40
2018-12-31T04:33:17.659Z,9.40
2018-12-31T04:34:22.915Z,9.40
2018-12-31T04:35:28.167Z,9.40
2018-12-31T04:36:33.325Z,9.40
2018-12-31T04:37:38.471Z,9.40
2018-12-31T04:38:43.610Z,9.40
2018-12-31T04:39:48.790Z,9.40
2018-12-31T04:40:53.986Z,9.40
2018-12-31T04:41:59.303Z,9.40
2018-12-31T04:43:04.419Z,9.40
2018-12-31T04:44:09.604Z,9.40
2018-12-31T04:45:14.845Z,9.40
2018-12-31T04:46:20.096Z,9.40
2018-12-31T04:47:25.237Z,9.50
2018-12-31T04:48:30.351Z,9.50
2018-12-31T04:49:35.610Z,9.40
2018-12-31T04:50:40.844Z,9.40
2018-12-31T04:51:46.060Z,9.40
2018-12-31T04:52:51.214Z,9.40
2018-12-31T04:53:56.427Z,9.40
2018-12-31T04:55:01.694Z,9.50
2018-12-31T04:56:06.915Z,9.40
2018-12-31T04:57:12.042Z,9.40
2018-12-31T04:58:22.916Z,9.40
2018-12-31T04:59:24.059Z,9.40
2018-12-31T05:00:29.164Z,9.40
2018-12-31T05:01:34.291Z,9.40
2018-12-31T05:02:39.421Z,9.40
2018-12-31T05:03:44.559Z,9.50
2018-12-31T05:04:49.740Z,9.40
2018-12-31T05:05:54.949Z,9.40
2018-12-31T05:07:00.087Z,9.40
2018-12-31T05:08:05.207Z,9.40
2018-12-31T05:09:10.336Z,9.40
2018-12-31T05:10:15.621Z,9.40
2018-12-31T05:11:20.698Z,9.50
2018-12-31T05:12:25.826Z,9.50
2018-12-31T05:13:30.879Z,9.50
2018-12-31T05:14:36.041Z,9.50
2018-12-31T05:15:41.245Z,9.50
2018-12-31T05:16:46.467Z,9.50
2018-12-31T05:17:51.633Z,9.50
2018-12-31T05:18:56.800Z,9.50
2018-12-31T05:20:02.082Z,9.50
2018-12-31T05:21:07.353Z,9.50
2018-12-31T05:22:12.471Z,9.50
2018-12-31T05:23:17.637Z,9.50
2018-12-31T05:24:22.805Z,9.50
2018-12-31T05:25:28.012Z,9.50
2018-12-31T05:26:33.173Z,9.50
2018-12-31T05:27:38.290Z,9.50
2018-12-31T05:28:43.533Z,9.50
2018-12-31T05:29:48.715Z,9.50
2018-12-31T05:30:53.967Z,9.50
2018-12-31T05:31:59.094Z,9.50
2018-12-31T05:33:04.514Z,9.50
2018-12-31T05:34:09.659Z,9.50
2018-12-31T05:35:14.816Z,9.60
2018-12-31T05:36:19.978Z,9.60
2018-12-31T05:37:25.148Z,9.60
2018-12-31T05:38:30.380Z,9.60
2018-12-31T05:39:35.552Z,9.60
2018-12-31T05:40:40.701Z,9.60
2018-12-31T05:41:45.866Z,9.60
2018-12-31T05:42:51.100Z,9.60
2018-12-31T05:43:56.253Z,9.60
2018-12-31T05:45:01.373Z,9.60
2018-12-31T05:46:06.586Z,9.60
2018-12-31T05:47:11.860Z,9.60
2018-12-31T05:48:17.104Z,9.60
2018-12-31T05:49:22.218Z,9.60
2018-12-31T05:50:27.445Z,9.60
2018-12-31T05:51:33.591Z,9.60
2018-12-31T05:52:38.856Z,9.60
2018-12-31T05:53:43.998Z,9.60
2018-12-31T05:54:49.075Z,9.60
2018-12-31T05:55:54.293Z,9.60
2018-12-31T05:56:59.483Z,9.60
2018-12-31T05:58:05.147Z,9.60
2018-12-31T05:59:10.265Z,9.60
2018-12-31T06:00:15.483Z,9.60
2018-12-31T06:01:20.615Z,9.70
2018-12-31T06:02:25.778Z,9.70
2018-12-31T06:03:30.924Z,9.60
2018-12-31T06:04:36.055Z,9.60
2018-12-31T06:05:41.177Z,9.60
2018-12-31T06:06:46.361Z,9.60
2018-12-31T06:07:51.501Z,9.60
2018-12-31T06:08:56.656Z,9.60
2018-12-31T06:10:01.862Z,9.60
2018-12-31T06:11:07.201Z,9.60
2018-12-31T06:12:12.358Z,9.60
2018-12-31T06:13:17.609Z,9.60
2018-12-31T06:14:22.770Z,9.60
2018-12-31T06:15:27.937Z,9.60
2018-12-31T06:16:33.194Z,9.60
2018-12-31T06:17:38.460Z,9.60
2018-12-31T06:18:43.632Z,9.60
2018-12-31T06:19:48.858Z,9.60
2018-12-31T06:20:54.109Z,9.60
2018-12-31T06:21:59.372Z,9.60
2018-12-31T06:23:04.701Z,9.60
2018-12-31T06:24:10.642Z,9.60
2018-12-31T06:25:15.921Z,9.60
2018-12-31T06:26:21.102Z,9.60
2018-12-31T06:27:26.367Z,9.60
2018-12-31T06:28:31.496Z,9.60
2018-12-31T06:29:36.631Z,9.60
2018-12-31T06:30:41.797Z,9.60
2018-12-31T06:31:47.010Z,9.60
2018-12-31T06:32:52.248Z,9.60
2018-12-31T06:33:57.386Z,9.60
2018-12-31T06:35:02.630Z,9.60
2018-12-31T06:36:08.792Z,9.60
2018-12-31T06:37:14.048Z,9.60
2018-12-31T06:38:19.187Z,9.60
2018-12-31T06:39:24.337Z,9.60
2018-12-31T06:40:29.573Z,9.60
2018-12-31T06:41:34.843Z,9.70
2018-12-31T06:42:40.060Z,9.70
2018-12-31T06:43:45.290Z,9.70
2018-12-31T06:44:50.493Z,9.60
2018-12-31T06:45:55.788Z,9.60
2018-12-31T06:47:01.000Z,9.70
2018-12-31T06:48:06.380Z,9.70
2018-12-31T06:49:11.611Z,9.70
2018-12-31T06:50:16.756Z,9.70
2018-12-31T06:51:21.997Z,9.70
2018-12-31T06:52:27.237Z,9.70
2018-12-31T06:53:32.406Z,9.70
2018-12-31T06:54:37.587Z,9.70
2018-12-31T06:55:42.827Z,9.70
2018-12-31T06:56:48.039Z,9.70
2018-12-31T06:57:53.267Z,9.70
2018-12-31T06:58:58.392Z,9.70
2018-12-31T07:00:03.775Z,9.70
2018-12-31T07:01:09.909Z,9.70
2018-12-31T07:02:15.150Z,9.60
2018-12-31T07:03:20.287Z,9.60
2018-12-31T07:04:25.451Z,9.60
2018-12-31T07:05:30.606Z,9.60
2018-12-31T07:06:35.851Z,9.60
2018-12-31T07:07:41.092Z,9.60
2018-12-31T07:08:46.322Z,9.60
2018-12-31T07:09:51.474Z,9.60
2018-12-31T07:10:56.689Z,9.60
2018-12-31T07:12:01.945Z,9.60
2018-12-31T07:13:07.141Z,9.60
2018-12-31T07:14:12.350Z,9.60
2018-12-31T07:15:17.421Z,9.60
2018-12-31T07:16:23.623Z,9.60
2018-12-31T07:17:28.799Z,9.60
2018-12-31T07:18:34.006Z,9.60
2018-12-31T07:19:40.460Z,9.60
2018-12-31T07:20:45.716Z,9.60
2018-12-31T07:21:50.951Z,9.60
2018-12-31T07:22:56.028Z,9.60
2018-12-31T07:24:01.145Z,9.60
2018-12-31T07:25:06.398Z,9.60
2018-12-31T07:26:11.692Z,9.60
2018-12-31T07:27:16.749Z,9.60
2018-12-31T07:28:21.862Z,9.60
2018-12-31T07:29:27.070Z,9.60
2018-12-31T07:30:33.191Z,9.50
2018-12-31T07:31:38.343Z,9.60
2018-12-31T07:32:43.806Z,9.60
2018-12-31T07:33:48.935Z,9.60
2018-12-31T07:34:54.075Z,9.60
2018-12-31T07:35:59.173Z,9.50
2018-12-31T07:37:04.411Z,9.50
2018-12-31T07:38:09.616Z,9.50
2018-12-31T07:39:14.716Z,9.50
2018-12-31T07:40:19.872Z,9.50
2018-12-31T07:41:25.097Z,9.60
2018-12-31T07:42:30.244Z,9.60
2018-12-31T07:43:35.384Z,9.50
2018-12-31T07:44:40.633Z,9.50
2018-12-31T07:45:45.885Z,9.50
2018-12-31T07:46:51.132Z,9.50
2018-12-31T07:47:56.266Z,9.50
2018-12-31T07:49:01.422Z,9.50
2018-12-31T07:50:06.611Z,9.50
2018-12-31T07:51:12.108Z,9.50
2018-12-31T07:52:17.252Z,9.50
2018-12-31T07:53:22.510Z,9.50
2018-12-31T07:54:27.679Z,9.50
2018-12-31T07:55:32.936Z,9.50
2018-12-31T07:56:38.147Z,9.50
2018-12-31T07:57:43.314Z,9.50
2018-12-31T07:58:48.449Z,9.50
2018-12-31T07:59:53.588Z,9.50
2018-12-31T08:00:58.827Z,9.50
2018-12-31T08:02:03.996Z,9.50
2018-12-31T08:03:09.169Z,9.50
2018-12-31T08:04:16.034Z,9.60
2018-12-31T08:05:21.260Z,9.60
2018-12-31T08:06:26.429Z,9.60
2018-12-31T08:07:31.670Z,9.60
2018-12-31T08:08:36.864Z,9.60
2018-12-31T08:09:42.029Z,9.60
2018-12-31T08:10:47.235Z,9.60
2018-12-31T08:11:52.407Z,9.60
2018-12-31T08:12:57.515Z,9.60
2018-12-31T08:14:02.682Z,9.60
2018-12-31T08:15:08.106Z,9.60
2018-12-31T08:16:13.407Z,9.60
2018-12-31T08:17:18.664Z,9.60
2018-12-31T08:18:23.824Z,9.60
2018-12-31T08:19:28.966Z,9.60
2018-12-31T08:20:34.117Z,9.60
2018-12-31T08:21:39.288Z,9.60
2018-12-31T08:22:44.472Z,9.60
2018-12-31T08:23:49.588Z,9.60
2018-12-31T08:24:54.742Z,9.60
2018-12-31T08:25:59.909Z,9.60
2018-12-31T08:27:04.974Z,9.60
2018-12-31T08:28:10.244Z,9.60
2018-12-31T08:29:15.439Z,9.60
2018-12-31T08:30:20.908Z,9.60
2018-12-31T08:31:26.055Z,9.60
2018-12-31T08:32:31.318Z,9.60
2018-12-31T08:33:36.466Z,9.60
2018-12-31T08:34:41.630Z,9.60
2018-12-31T08:35:46.870Z,9.60
2018-12-31T08:36:52.037Z,9.60
2018-12-31T08:37:57.273Z,9.60
2018-12-31T08:39:02.488Z,9.60
2018-12-31T08:40:08.506Z,9.70
2018-12-31T08:41:13.824Z,9.60
2018-12-31T08:42:19.072Z,9.60
2018-12-31T08:43:24.194Z,9.60
2018-12-31T08:44:29.463Z,9.60
2018-12-31T08:45:34.599Z,9.60
2018-12-31T08:46:39.784Z,9.70
2018-12-31T08:47:44.886Z,9.70
2018-12-31T08:48:49.960Z,9.70
2018-12-31T08:49:55.116Z,9.70
2018-12-31T08:51:01.244Z,9.70
2018-12-31T08:52:06.446Z,9.70
2018-12-31T08:53:11.623Z,9.70
2018-12-31T08:54:16.838Z,9.70
2018-12-31T08:55:22.077Z,9.70
2018-12-31T08:56:27.178Z,9.70
2018-12-31T08:57:32.324Z,9.70
2018-12-31T08:58:37.491Z,9.80
2018-12-31T08:59:42.616Z,9.80
2018-12-31T09:00:47.771Z,9.80
2018-12-31T09:01:52.897Z,9.80
2018-12-31T09:02:58.377Z,9.80
2018-12-31T09:04:03.527Z,9.80
2018-12-31T09:05:08.689Z,9.80
2018-12-31T09:06:13.947Z,9.80
2018-12-31T09:07:19.176Z,9.80
2018-12-31T09:08:24.415Z,9.80
2018-12-31T09:09:29.534Z,9.80
2018-12-31T09:10:34.807Z,9.80
2018-12-31T09:11:40.040Z,9.80
2018-12-31T09:12:45.201Z,9.80
2018-12-31T09:13:50.401Z,9.80
2018-12-31T09:14:55.627Z,9.80
2018-12-31T09:16:00.805Z,9.80
2018-12-31T09:17:06.060Z,9.90
2018-12-31T09:18:11.293Z,9.80
2018-12-31T09:19:16.561Z,9.80
2018-12-31T09:20:21.827Z,9.80
2018-12-31T09:21:27.025Z,9.80
2018-12-31T09:22:32.205Z,9.80
2018-12-31T09:23:37.458Z,9.80
2018-12-31T09:24:44.711Z,9.80
2018-12-31T09:25:49.494Z,9.80
2018-12-31T09:26:54.645Z,9.80
2018-12-31T09:27:59.817Z,9.80
2018-12-31T09:29:05.053Z,9.80
2018-12-31T09:30:10.217Z,9.80
2018-12-31T09:31:15.527Z,9.80
2018-12-31T09:32:20.624Z,9.80
2018-12-31T09:33:25.857Z,9.80
2018-12-31T09:34:31.075Z,9.90
2018-12-31T09:35:36.225Z,9.90
2018-12-31T09:36:41.678Z,9.90
2018-12-31T09:37:46.818Z,9.90
2018-12-31T09:38:52.013Z,10.00
2018-12-31T09:39:57.228Z,9.90
2018-12-31T09:41:02.449Z,9.90
2018-12-31T09:42:07.689Z,9.90
2018-12-31T09:43:13.068Z,9.90
2018-12-31T09:44:18.769Z,9.90
2018-12-31T09:45:23.905Z,9.90
2018-12-31T09:46:29.035Z,9.90
2018-12-31T09:47:34.179Z,9.90
2018-12-31T09:48:39.348Z,9.90
2018-12-31T09:49:44.469Z,9.90
2018-12-31T09:50:49.917Z,9.80
2018-12-31T09:51:55.056Z,9.80
2018-12-31T09:53:00.339Z,9.90
2018-12-31T09:54:05.631Z,9.90
2018-12-31T09:55:10.976Z,9.90
2018-12-31T09:56:16.155Z,9.90
2018-12-31T09:57:21.337Z,9.90
2018-12-31T09:58:26.573Z,9.90
2018-12-31T09:59:32.256Z,9.90
2018-12-31T10:00:37.507Z,9.90
2018-12-31T10:01:42.602Z,9.90
2018-12-31T10:02:47.935Z,9.90
2018-12-31T10:03:53.172Z,9.90
2018-12-31T10:04:58.471Z,9.90
2018-12-31T10:06:03.660Z,9.90
2018-12-31T10:07:08.909Z,9.90
2018-12-31T10:08:14.136Z,9.90
2018-12-31T10:09:20.003Z,9.90
2018-12-31T10:10:25.396Z,9.90
2018-12-31T10:11:30.758Z,9.90
2018-12-31T10:12:39.573Z,9.90
2018-12-31T10:13:44.773Z,10.00
2018-12-31T10:14:49.920Z,10.00
2018-12-31T10:15:55.092Z,10.10
2018-12-31T10:17:00.265Z,10.00
2018-12-31T10:18:05.498Z,10.00
2018-12-31T10:19:10.763Z,10.00
2018-12-31T10:20:15.939Z,10.10
2018-12-31T10:21:21.160Z,10.10
2018-12-31T10:22:26.410Z,10.10
2018-12-31T10:23:31.728Z,10.10
2018-12-31T10:24:36.906Z,10.10
2018-12-31T10:25:42.171Z,10.10
2018-12-31T10:26:47.370Z,10.20
2018-12-31T10:27:52.663Z,10.10
2018-12-31T10:28:57.856Z,10.20
2018-12-31T10:30:03.101Z,10.20
2018-12-31T10:31:08.238Z,10.20
2018-12-31T10:32:13.568Z,10.30
2018-12-31T10:33:19.546Z,10.20
2018-12-31T10:34:23.786Z,10.20
2018-12-31T10:35:29.048Z,10.20
2018-12-31T10:36:34.294Z,10.20
2018-12-31T10:37:39.589Z,10.20
2018-12-31T10:38:51.083Z,10.20
2018-12-31T10:39:51.612Z,10.30
2018-12-31T10:40:56.833Z,10.30
2018-12-31T10:42:02.113Z,10.30
2018-12-31T10:43:07.444Z,10.30
2018-12-31T10:44:12.769Z,10.30
2018-12-31T10:45:18.047Z,10.20
2018-12-31T10:46:23.370Z,10.20
2018-12-31T10:47:28.740Z,10.30
2018-12-31T10:48:33.992Z,10.20
2018-12-31T10:49:39.324Z,10.30
2018-12-31T10:50:44.585Z,10.30
2018-12-31T10:51:49.950Z,10.30
2018-12-31T10:52:55.235Z,10.30
2018-12-31T10:54:00.493Z,10.30
2018-12-31T10:55:06.202Z,10.30
2018-12-31T10:56:11.775Z,10.30
2018-12-31T10:57:18.016Z,10.30
2018-12-31T10:58:24.397Z,10.30
2018-12-31T10:59:29.636Z,10.30
2018-12-31T11:00:34.952Z,10.30
2018-12-31T11:01:41.181Z,10.30
2018-12-31T11:02:46.430Z,10.30
2018-12-31T11:03:51.626Z,10.30
2018-12-31T11:04:57.099Z,10.30
2018-12-31T11:06:02.407Z,10.30
2018-12-31T11:07:07.722Z,10.30
2018-12-31T11:08:12.933Z,10.30
2018-12-31T11:09:18.175Z,10.30
2018-12-31T11:10:23.464Z,10.30
2018-12-31T11:11:28.767Z,10.30
2018-12-31T11:12:34.161Z,10.30
2018-12-31T11:13:39.484Z,10.30
2018-12-31T11:14:44.936Z,10.30
2018-12-31T11:15:50.224Z,10.30
2018-12-31T11:16:55.608Z,10.30
2018-12-31T11:18:00.931Z,10.40
2018-12-31T11:19:06.219Z,10.40
2018-12-31T11:20:11.447Z,10.40
2018-12-31T11:21:16.750Z,10.40
2018-12-31T11:22:22.042Z,10.50
2018-12-31T11:23:27.352Z,10.50
2018-12-31T11:24:32.636Z,10.40
2018-12-31T11:25:37.983Z,10.50
2018-12-31T11:26:43.285Z,10.50
2018-12-31T11:27:48.616Z,10.50
2018-12-31T11:28:53.823Z,10.50
2018-12-31T11:29:59.039Z,10.50
2018-12-31T11:31:04.276Z,10.50
2018-12-31T11:32:09.540Z,10.50
2018-12-31T11:33:14.919Z,10.50
2018-12-31T11:34:20.197Z,10.50
2018-12-31T11:35:25.551Z,10.50
2018-12-31T11:36:32.469Z,10.50
2018-12-31T11:37:37.930Z,10.50
2018-12-31T11:38:43.181Z,10.50
2018-12-31T11:39:48.468Z,10.50
2018-12-31T11:40:53.762Z,10.50
2018-12-31T11:41:59.064Z,10.50
2018-12-31T11:43:04.434Z,10.50
2018-12-31T11:44:09.617Z,10.40
2018-12-31T11:45:14.936Z,10.50
2018-12-31T11:46:20.288Z,10.50
2018-12-31T11:47:25.601Z,10.50
2018-12-31T11:48:30.808Z,10.50
2018-12-31T11:49:36.101Z,10.50
2018-12-31T11:50:41.399Z,10.50
2018-12-31T11:51:46.700Z,10.50
2018-12-31T11:52:51.914Z,10.50
2018-12-31T11:53:57.193Z,10.60
2018-12-31T11:55:03.518Z,10.60
2018-12-31T11:56:09.972Z,10.60
2018-12-31T11:57:15.275Z,10.60
2018-12-31T11:58:20.472Z,10.60
2018-12-31T11:59:25.644Z,10.60
2018-12-31T12:00:30.886Z,10.60
2018-12-31T12:01:36.123Z,10.60
2018-12-31T12:02:41.415Z,10.70
2018-12-31T12:03:46.719Z,10.60
2018-12-31T12:04:52.035Z,10.60
2018-12-31T12:05:57.254Z,10.60
2018-12-31T12:07:02.602Z,10.60
2018-12-31T12:08:07.877Z,10.60
2018-12-31T12:09:13.142Z,10.60
2018-12-31T12:10:18.748Z,10.60
2018-12-31T12:11:24.015Z,10.60
2018-12-31T12:12:29.302Z,10.60
2018-12-31T12:13:34.574Z,10.60
2018-12-31T12:14:39.792Z,10.60
2018-12-31T12:15:45.130Z,10.70
2018-12-31T12:16:50.406Z,10.70
2018-12-31T12:17:55.675Z,10.70
2018-12-31T12:19:00.933Z,10.70
2018-12-31T12:20:06.404Z,10.70
2018-12-31T12:21:11.754Z,10.70
2018-12-31T12:22:17.240Z,10.70
2018-12-31T12:23:22.948Z,10.70
2018-12-31T12:24:28.536Z,10.70
2018-12-31T12:25:33.870Z,10.70
2018-12-31T12:26:39.209Z,10.70
2018-12-31T12:27:44.392Z,10.70
2018-12-31T12:28:49.692Z,10.70
2018-12-31T12:29:55.082Z,10.70
2018-12-31T12:31:00.368Z,10.70
2018-12-31T12:32:05.704Z,10.70
2018-12-31T12:33:11.096Z,10.60
2018-12-31T12:34:16.291Z,10.60
2018-12-31T12:35:21.623Z,10.60
2018-12-31T12:36:26.980Z,10.60
2018-12-31T12:37:32.270Z,10.60
2018-12-31T12:38:37.567Z,10.60
2018-12-31T12:39:42.854Z,10.60
2018-12-31T12:40:48.126Z,10.60
2018-12-31T12:41:53.429Z,10.60
2018-12-31T12:42:58.702Z,10.60
2018-12-31T12:44:03.921Z,10.60
2018-12-31T12:45:09.237Z,10.60
2018-12-31T12:46:14.506Z,10.60
2018-12-31T12:47:19.783Z,10.50
2018-12-31T12:48:25.059Z,10.50
2018-12-31T12:49:30.266Z,10.50
2018-12-31T12:50:35.554Z,10.50
2018-12-31T12:51:40.882Z,10.50
2018-12-31T12:52:46.141Z,10.50
2018-12-31T12:53:51.507Z,10.50
2018-12-31T12:54:57.173Z,10.50
2018-12-31T12:56:02.462Z,10.50
2018-12-31T12:57:07.797Z,10.40
2018-12-31T12:58:12.965Z,10.50
2018-12-31T12:59:18.279Z,10.50
2018-12-31T13:00:23.574Z,10.50
2018-12-31T13:01:28.941Z,10.40
2018-12-31T13:02:34.275Z,10.50
2018-12-31T13:03:39.524Z,10.50
2018-12-31T13:04:44.837Z,10.50
2018-12-31T13:05:50.118Z,10.50
2018-12-31T13:06:55.368Z,10.50
2018-12-31T13:08:00.779Z,10.50
2018-12-31T13:09:07.360Z,10.50
2018-12-31T13:10:12.595Z,10.50
2018-12-31T13:11:17.864Z,10.60
2018-12-31T13:12:23.051Z,10.60
2018-12-31T13:13:28.332Z,10.60
2018-12-31T13:14:33.623Z,10.60
2018-12-31T13:15:38.844Z,10.50
2018-12-31T13:16:44.155Z,10.50
2018-12-31T13:17:49.348Z,10.50
2018-12-31T13:18:54.614Z,10.50
2018-12-31T13:19:59.840Z,10.50
2018-12-31T13:21:05.043Z,10.50
2018-12-31T13:22:10.254Z,10.60
2018-12-31T13:23:15.589Z,10.60
2018-12-31T13:24:20.824Z,10.60
2018-12-31T13:25:26.426Z,10.60
2018-12-31T13:26:31.924Z,10.50
2018-12-31T13:27:37.251Z,10.50
2018-12-31T13:28:42.598Z,10.60
2018-12-31T13:29:47.853Z,10.60
2018-12-31T13:30:53.142Z,10.60
2018-12-31T13:31:58.442Z,10.60
2018-12-31T13:33:03.793Z,10.60
2018-12-31T13:34:09.177Z,10.60
2018-12-31T13:35:14.466Z,10.60
2018-12-31T13:36:19.678Z,10.60
2018-12-31T13:37:25.035Z,10.60
2018-12-31T13:38:30.374Z,10.60
2018-12-31T13:39:35.975Z,10.60
2018-12-31T13:40:41.194Z,10.60
2018-12-31T13:41:46.428Z,10.60
2018-12-31T13:42:51.753Z,10.60
2018-12-31T13:43:56.997Z,10.60
2018-12-31T13:45:02.321Z,10.60
2018-12-31T13:46:07.567Z,10.60
2018-12-31T13:47:12.875Z,10.60
2018-12-31T13:48:18.186Z,10.60
2018-12-31T13:49:23.537Z,10.60
2018-12-31T13:50:28.788Z,10.60
2018-12-31T13:51:34.176Z,10.60
2018-12-31T13:52:39.477Z,10.60
2018-12-31T13:53:44.820Z,10.60
2018-12-31T13:54:50.151Z,10.70
2018-12-31T13:55:55.666Z,10.70
2018-12-31T13:57:01.226Z,10.60
2018-12-31T13:58:06.892Z,10.70
2018-12-31T13:59:12.222Z,10.60
2018-12-31T14:00:17.482Z,10.70
2018-12-31T14:01:22.840Z,10.70
2018-12-31T14:02:28.312Z,10.70
2018-12-31T14:03:33.625Z,10.60
2018-12-31T14:04:38.822Z,10.60
2018-12-31T14:05:44.091Z,10.60
2018-12-31T14:06:49.359Z,10.60
2018-12-31T14:07:54.670Z,10.60
2018-12-31T14:08:59.981Z,10.70
2018-12-31T14:10:06.033Z,10.60
2018-12-31T14:11:11.328Z,10.70
2018-12-31T14:12:16.542Z,10.60
2018-12-31T14:13:21.815Z,10.60
2018-12-31T14:14:27.125Z,10.60
2018-12-31T14:15:32.483Z,10.60
2018-12-31T14:16:37.778Z,10.60
2018-12-31T14:17:43.098Z,10.60
2018-12-31T14:18:48.453Z,10.60
2018-12-31T14:19:54.701Z,10.60
2018-12-31T14:20:59.983Z,10.60